sensor_id;sensor_type;location;lat;lon;timestamp;temperature;humidity
25170;DHT22;13129;48.012;10.352;2023-05-23T03:32:09;10.90;99.90
25170;DHT22;13129;48.012;10.352;2023-05-23T03:34:35;10.90;99.90
25170;DHT22;13129;48.012;10.352;2023-05-23T03:37:01;11.00;99.90
25170;DHT22;13129;48.012;10.352;2023-05-23T03:39:26;11.00;99.90
25170;DHT22;13129;48.012;10.352;2023-05-23T03:41:52;11.00;99.90
25170;DHT22;13129;48.012;10.352;2023-05-23T03:44:17;10.90;99.90
25170;DHT22;13129;48.012;10.352;2023-05-23T03:46:43;11.00;99.90
25170;DHT22;13129;48.012;10.352;2023-05-23T03:49:09;11.00;99.90
25170;DHT22;13129;48.012;10.352;2023-05-23T03:51:34;11.00;99.90
25170;DHT22;13129;48.012;10.352;2023-05-23T03:54:00;11.10;99.90
25170;DHT22;13129;48.012;10.352;2023-05-23T03:56:25;11.10;99.90
25170;DHT22;13129;48.012;10.352;2023-05-23T03:58:51;11.20;99.90
25170;DHT22;13129;48.012;10.352;2023-05-23T04:01:17;11.20;99.90
25170;DHT22;13129;48.012;10.352;2023-05-23T04:03:42;11.30;99.90
25170;DHT22;13129;48.012;10.352;2023-05-23T04:06:08;11.30;99.90
25170;DHT22;13129;48.012;10.352;2023-05-23T04:08:34;11.40;99.90
25170;DHT22;13129;48.012;10.352;2023-05-23T04:11:00;11.50;99.90
25170;DHT22;13129;48.012;10.352;2023-05-23T04:13:26;11.60;99.90
25170;DHT22;13129;48.012;10.352;2023-05-23T04:15:52;11.70;99.90
25170;DHT22;13129;48.012;10.352;2023-05-23T04:18:20;11.90;99.90
25170;DHT22;13129;48.012;10.352;2023-05-23T04:20:46;12.00;99.90
25170;DHT22;13129;48.012;10.352;2023-05-23T04:23:12;12.20;99.90
25170;DHT22;13129;48.012;10.352;2023-05-23T04:25:38;12.40;99.90
25170;DHT22;13129;48.012;10.352;2023-05-23T04:28:04;12.50;99.90
25170;DHT22;13129;48.012;10.352;2023-05-23T04:30:31;12.40;99.90
25170;DHT22;13129;48.012;10.352;2023-05-23T04:32:57;12.50;99.90
25170;DHT22;13129;48.012;10.352;2023-05-23T04:35:25;12.50;99.90
25170;DHT22;13129;48.012;10.352;2023-05-23T04:37:55;12.70;99.90
25170;DHT22;13129;48.012;10.352;2023-05-23T04:40:22;12.70;99.90
25170;DHT22;13129;48.012;10.352;2023-05-23T04:42:48;12.80;99.90
25170;DHT22;13129;48.012;10.352;2023-05-23T04:45:16;12.80;99.90
25170;DHT22;13129;48.012;10.352;2023-05-23T04:47:42;12.90;99.90
25170;DHT22;13129;48.012;10.352;2023-05-23T04:50:09;12.90;99.90
25170;DHT22;13129;48.012;10.352;2023-05-23T04:52:35;13.00;99.90
25170;DHT22;13129;48.012;10.352;2023-05-23T04:55:01;13.00;99.90
25170;DHT22;13129;48.012;10.352;2023-05-23T04:57:27;13.20;99.90
25170;DHT22;13129;48.012;10.352;2023-05-23T04:59:52;13.30;99.90
25170;DHT22;13129;48.012;10.352;2023-05-23T05:02:18;13.50;99.90
25170;DHT22;13129;48.012;10.352;2023-05-23T05:04:43;13.70;99.90
25170;DHT22;13129;48.012;10.352;2023-05-23T05:07:09;14.00;99.90
25170;DHT22;13129;48.012;10.352;2023-05-23T05:09:35;14.30;99.90
25170;DHT22;13129;48.012;10.352;2023-05-23T05:12:01;14.60;99.90
25170;DHT22;13129;48.012;10.352;2023-05-23T05:14:27;14.70;99.90
25170;DHT22;13129;48.012;10.352;2023-05-23T05:16:53;14.80;99.90
25170;DHT22;13129;48.012;10.352;2023-05-23T05:19:22;14.90;99.90
25170;DHT22;13129;48.012;10.352;2023-05-23T05:21:48;14.90;99.90
25170;DHT22;13129;48.012;10.352;2023-05-23T05:24:14;15.00;99.90
25170;DHT22;13129;48.012;10.352;2023-05-23T05:26:40;15.10;99.90
25170;DHT22;13129;48.012;10.352;2023-05-23T05:29:06;15.10;99.90
25170;DHT22;13129;48.012;10.352;2023-05-23T05:31:32;15.10;99.90
25170;DHT22;13129;48.012;10.352;2023-05-23T05:33:58;15.20;99.90
25170;DHT22;13129;48.012;10.352;2023-05-23T05:36:24;15.30;99.90
25170;DHT22;13129;48.012;10.352;2023-05-23T05:38:49;15.40;99.90
25170;DHT22;13129;48.012;10.352;2023-05-23T05:41:15;15.40;99.90
25170;DHT22;13129;48.012;10.352;2023-05-23T05:43:41;15.40;99.90
25170;DHT22;13129;48.012;10.352;2023-05-23T05:46:06;15.30;99.90
25170;DHT22;13129;48.012;10.352;2023-05-23T05:48:32;15.20;99.90
25170;DHT22;13129;48.012;10.352;2023-05-23T05:50:58;15.20;99.90
25170;DHT22;13129;48.012;10.352;2023-05-23T05:53:25;15.30;99.90
25170;DHT22;13129;48.012;10.352;2023-05-23T05:55:53;15.40;99.90
25170;DHT22;13129;48.012;10.352;2023-05-23T05:58:18;15.40;99.90
25170;DHT22;13129;48.012;10.352;2023-05-23T06:00:44;15.60;99.90
25170;DHT22;13129;48.012;10.352;2023-05-23T06:03:10;15.90;99.90
25170;DHT22;13129;48.012;10.352;2023-05-23T06:05:36;16.20;99.90
25170;DHT22;13129;48.012;10.352;2023-05-23T06:08:03;16.60;99.90
25170;DHT22;13129;48.012;10.352;2023-05-23T06:10:29;17.60;99.90
25170;DHT22;13129;48.012;10.352;2023-05-23T06:12:55;18.10;99.90
25170;DHT22;13129;48.012;10.352;2023-05-23T06:15:21;18.30;99.90
25170;DHT22;13129;48.012;10.352;2023-05-23T06:17:46;18.30;99.90
25170;DHT22;13129;48.012;10.352;2023-05-23T06:20:12;18.20;99.90
25170;DHT22;13129;48.012;10.352;2023-05-23T06:22:38;18.10;99.90
25170;DHT22;13129;48.012;10.352;2023-05-23T06:25:05;17.90;99.90
25170;DHT22;13129;48.012;10.352;2023-05-23T06:27:31;17.60;99.90
25170;DHT22;13129;48.012;10.352;2023-05-23T06:29:56;17.40;99.90
25170;DHT22;13129;48.012;10.352;2023-05-23T06:32:22;17.20;99.90
25170;DHT22;13129;48.012;10.352;2023-05-23T06:34:47;17.20;99.90
25170;DHT22;13129;48.012;10.352;2023-05-23T06:37:13;17.20;99.90
25170;DHT22;13129;48.012;10.352;2023-05-23T06:39:39;17.30;99.90
25170;DHT22;13129;48.012;10.352;2023-05-23T06:42:05;17.50;99.90
25170;DHT22;13129;48.012;10.352;2023-05-23T06:44:30;17.60;99.90
25170;DHT22;13129;48.012;10.352;2023-05-23T06:46:56;17.70;99.90
25170;DHT22;13129;48.012;10.352;2023-05-23T06:49:24;17.60;99.90
25170;DHT22;13129;48.012;10.352;2023-05-23T06:51:50;17.60;99.90
25170;DHT22;13129;48.012;10.352;2023-05-23T06:54:16;17.50;99.90
25170;DHT22;13129;48.012;10.352;2023-05-23T06:56:42;17.50;99.90
25170;DHT22;13129;48.012;10.352;2023-05-23T06:59:07;17.60;99.90
25170;DHT22;13129;48.012;10.352;2023-05-23T07:01:33;17.50;99.90
25170;DHT22;13129;48.012;10.352;2023-05-23T07:03:58;17.50;99.90
25170;DHT22;13129;48.012;10.352;2023-05-23T07:06:24;17.30;99.90
25170;DHT22;13129;48.012;10.352;2023-05-23T07:08:52;17.20;99.90
25170;DHT22;13129;48.012;10.352;2023-05-23T07:11:19;17.10;99.90
25170;DHT22;13129;48.012;10.352;2023-05-23T07:13:45;16.90;99.90
25170;DHT22;13129;48.012;10.352;2023-05-23T07:16:11;16.90;99.90
25170;DHT22;13129;48.012;10.352;2023-05-23T07:18:36;16.80;99.90
25170;DHT22;13129;48.012;10.352;2023-05-23T07:21:02;16.70;99.90
25170;DHT22;13129;48.012;10.352;2023-05-23T07:23:32;16.60;99.90
25170;DHT22;13129;48.012;10.352;2023-05-23T07:25:59;16.50;99.90
25170;DHT22;13129;48.012;10.352;2023-05-23T07:28:25;16.50;99.90
25170;DHT22;13129;48.012;10.352;2023-05-23T07:30:50;16.50;99.90
25170;DHT22;13129;48.012;10.352;2023-05-23T07:33:16;16.50;99.90
25170;DHT22;13129;48.012;10.352;2023-05-23T07:35:43;16.60;99.90
25170;DHT22;13129;48.012;10.352;2023-05-23T07:38:09;16.60;99.90
25170;DHT22;13129;48.012;10.352;2023-05-23T07:40:34;16.70;99.90
25170;DHT22;13129;48.012;10.352;2023-05-23T07:43:01;16.80;99.90
25170;DHT22;13129;48.012;10.352;2023-05-23T07:45:27;16.80;99.90
25170;DHT22;13129;48.012;10.352;2023-05-23T07:47:53;16.80;99.90
25170;DHT22;13129;48.012;10.352;2023-05-23T07:50:18;16.90;99.90
25170;DHT22;13129;48.012;10.352;2023-05-23T07:52:44;17.00;99.90
25170;DHT22;13129;48.012;10.352;2023-05-23T07:55:10;17.00;99.90
25170;DHT22;13129;48.012;10.352;2023-05-23T07:57:36;17.00;99.90
25170;DHT22;13129;48.012;10.352;2023-05-23T08:00:02;17.00;99.90
25170;DHT22;13129;48.012;10.352;2023-05-23T08:02:29;16.80;99.90
25170;DHT22;13129;48.012;10.352;2023-05-23T08:04:54;16.70;99.90
25170;DHT22;13129;48.012;10.352;2023-05-23T08:07:21;16.70;99.90
25170;DHT22;13129;48.012;10.352;2023-05-23T08:09:47;16.70;99.90
25170;DHT22;13129;48.012;10.352;2023-05-23T08:12:13;16.80;99.90
25170;DHT22;13129;48.012;10.352;2023-05-23T08:14:38;16.90;99.90
25170;DHT22;13129;48.012;10.352;2023-05-23T08:17:04;17.00;99.90
25170;DHT22;13129;48.012;10.352;2023-05-23T08:19:30;17.20;99.90
25170;DHT22;13129;48.012;10.352;2023-05-23T08:21:55;17.30;99.90
25170;DHT22;13129;48.012;10.352;2023-05-23T08:24:21;17.40;99.90
25170;DHT22;13129;48.012;10.352;2023-05-23T08:26:47;17.50;99.90
25170;DHT22;13129;48.012;10.352;2023-05-23T08:29:13;17.60;99.90
25170;DHT22;13129;48.012;10.352;2023-05-23T08:31:39;17.70;99.90
25170;DHT22;13129;48.012;10.352;2023-05-23T08:34:05;17.70;99.90
25170;DHT22;13129;48.012;10.352;2023-05-23T08:36:31;17.60;99.90
25170;DHT22;13129;48.012;10.352;2023-05-23T08:38:58;17.70;99.90
25170;DHT22;13129;48.012;10.352;2023-05-23T08:41:24;17.50;99.90
25170;DHT22;13129;48.012;10.352;2023-05-23T08:43:51;17.60;99.90
25170;DHT22;13129;48.012;10.352;2023-05-23T08:46:17;18.00;99.90
25170;DHT22;13129;48.012;10.352;2023-05-23T08:48:46;18.60;99.90
25170;DHT22;13129;48.012;10.352;2023-05-23T08:51:16;19.30;99.90
25170;DHT22;13129;48.012;10.352;2023-05-23T08:53:42;19.90;99.90
25170;DHT22;13129;48.012;10.352;2023-05-23T08:56:11;20.60;99.90
25170;DHT22;13129;48.012;10.352;2023-05-23T08:58:38;21.40;99.90
25170;DHT22;13129;48.012;10.352;2023-05-23T09:01:07;21.80;99.90
25170;DHT22;13129;48.012;10.352;2023-05-23T09:03:34;21.80;99.90
25170;DHT22;13129;48.012;10.352;2023-05-23T09:06:04;21.70;99.90
25170;DHT22;13129;48.012;10.352;2023-05-23T09:08:31;21.40;99.90
25170;DHT22;13129;48.012;10.352;2023-05-23T09:10:56;21.10;99.90
25170;DHT22;13129;48.012;10.352;2023-05-23T09:13:22;20.70;99.90
25170;DHT22;13129;48.012;10.352;2023-05-23T09:16:05;20.40;99.90
25170;DHT22;13129;48.012;10.352;2023-05-23T09:18:36;20.10;99.90
25170;DHT22;13129;48.012;10.352;2023-05-23T09:21:03;19.70;99.90
25170;DHT22;13129;48.012;10.352;2023-05-23T09:23:32;19.50;99.90
25170;DHT22;13129;48.012;10.352;2023-05-23T09:26:05;19.50;99.90
25170;DHT22;13129;48.012;10.352;2023-05-23T09:28:35;19.40;99.90
25170;DHT22;13129;48.012;10.352;2023-05-23T09:31:03;19.20;99.90
25170;DHT22;13129;48.012;10.352;2023-05-23T09:33:49;19.00;99.90
25170;DHT22;13129;48.012;10.352;2023-05-23T09:36:15;18.80;99.90
25170;DHT22;13129;48.012;10.352;2023-05-23T09:38:44;18.80;99.90
25170;DHT22;13129;48.012;10.352;2023-05-23T09:41:11;18.70;99.90
25170;DHT22;13129;48.012;10.352;2023-05-23T09:43:52;18.80;99.90
25170;DHT22;13129;48.012;10.352;2023-05-23T09:46:19;19.00;99.90
25170;DHT22;13129;48.012;10.352;2023-05-23T09:48:49;19.30;99.90
25170;DHT22;13129;48.012;10.352;2023-05-23T09:51:19;19.70;99.90
25170;DHT22;13129;48.012;10.352;2023-05-23T09:53:46;19.70;99.90
25170;DHT22;13129;48.012;10.352;2023-05-23T09:56:12;19.90;99.90
25170;DHT22;13129;48.012;10.352;2023-05-23T09:58:38;19.90;99.90
25170;DHT22;13129;48.012;10.352;2023-05-23T10:01:06;20.00;99.90
25170;DHT22;13129;48.012;10.352;2023-05-23T10:03:53;19.90;99.90
25170;DHT22;13129;48.012;10.352;2023-05-23T10:06:25;19.80;99.90
25170;DHT22;13129;48.012;10.352;2023-05-23T10:08:56;19.90;99.90
25170;DHT22;13129;48.012;10.352;2023-05-23T10:14:10;21.90;99.90
25170;DHT22;13129;48.012;10.352;2023-05-23T10:17:17;24.00;99.90
25170;DHT22;13129;48.012;10.352;2023-05-23T10:19:52;25.00;99.90
25170;DHT22;13129;48.012;10.352;2023-05-23T10:22:22;23.90;99.90
25170;DHT22;13129;48.012;10.352;2023-05-23T10:24:49;22.50;99.90
25170;DHT22;13129;48.012;10.352;2023-05-23T10:27:15;21.10;99.90
25170;DHT22;13129;48.012;10.352;2023-05-23T10:29:40;19.90;99.90
25170;DHT22;13129;48.012;10.352;2023-05-23T10:32:06;19.00;99.90
25170;DHT22;13129;48.012;10.352;2023-05-23T10:34:46;18.30;99.90
25170;DHT22;13129;48.012;10.352;2023-05-23T10:45:17;16.80;99.90
25170;DHT22;13129;48.012;10.352;2023-05-23T10:47:43;16.60;99.90
25170;DHT22;13129;48.012;10.352;2023-05-23T10:50:12;16.40;99.90
25170;DHT22;13129;48.012;10.352;2023-05-23T10:52:40;16.30;99.90
25170;DHT22;13129;48.012;10.352;2023-05-23T10:55:14;16.20;99.90
25170;DHT22;13129;48.012;10.352;2023-05-23T10:57:42;16.20;99.90
25170;DHT22;13129;48.012;10.352;2023-05-23T11:00:15;16.20;99.90
25170;DHT22;13129;48.012;10.352;2023-05-23T11:02:53;16.20;99.90
25170;DHT22;13129;48.012;10.352;2023-05-23T11:05:23;16.30;99.90
25170;DHT22;13129;48.012;10.352;2023-05-23T11:08:08;16.30;99.90
25170;DHT22;13129;48.012;10.352;2023-05-23T11:10:58;16.40;99.90
25170;DHT22;13129;48.012;10.352;2023-05-23T11:13:24;16.50;99.90
25170;DHT22;13129;48.012;10.352;2023-05-23T11:15:50;16.60;99.90
25170;DHT22;13129;48.012;10.352;2023-05-23T11:18:25;16.80;99.90
25170;DHT22;13129;48.012;10.352;2023-05-23T11:20:52;17.00;99.90
25170;DHT22;13129;48.012;10.352;2023-05-23T11:23:19;17.20;99.90
25170;DHT22;13129;48.012;10.352;2023-05-23T11:25:50;17.50;99.90
25170;DHT22;13129;48.012;10.352;2023-05-23T11:28:18;17.80;99.90
25170;DHT22;13129;48.012;10.352;2023-05-23T11:30:47;18.10;99.90
25170;DHT22;13129;48.012;10.352;2023-05-23T11:33:14;18.30;99.90
25170;DHT22;13129;48.012;10.352;2023-05-23T11:35:42;18.50;99.90
25170;DHT22;13129;48.012;10.352;2023-05-23T11:38:09;18.80;99.90
25170;DHT22;13129;48.012;10.352;2023-05-23T11:43:06;19.40;99.90
25170;DHT22;13129;48.012;10.352;2023-05-23T11:45:33;19.60;99.90
25170;DHT22;13129;48.012;10.352;2023-05-23T11:48:04;19.90;99.90
25170;DHT22;13129;48.012;10.352;2023-05-23T11:50:30;20.00;99.90
25170;DHT22;13129;48.012;10.352;2023-05-23T11:52:56;20.30;99.90
25170;DHT22;13129;48.012;10.352;2023-05-23T11:55:22;20.60;99.90
25170;DHT22;13129;48.012;10.352;2023-05-23T11:57:48;20.80;99.90
25170;DHT22;13129;48.012;10.352;2023-05-23T12:00:15;20.90;99.90
25170;DHT22;13129;48.012;10.352;2023-05-23T12:02:41;20.90;99.90
25170;DHT22;13129;48.012;10.352;2023-05-23T12:05:12;21.30;99.90
25170;DHT22;13129;48.012;10.352;2023-05-23T12:07:41;21.90;99.90
25170;DHT22;13129;48.012;10.352;2023-05-23T12:10:09;22.20;99.90
25170;DHT22;13129;48.012;10.352;2023-05-23T12:12:35;22.30;99.90
25170;DHT22;13129;48.012;10.352;2023-05-23T12:15:01;22.40;99.90
25170;DHT22;13129;48.012;10.352;2023-05-23T12:17:27;22.70;99.90
25170;DHT22;13129;48.012;10.352;2023-05-23T12:19:53;22.60;99.90
25170;DHT22;13129;48.012;10.352;2023-05-23T12:22:25;22.70;99.90
25170;DHT22;13129;48.012;10.352;2023-05-23T12:24:54;22.60;99.90
25170;DHT22;13129;48.012;10.352;2023-05-23T12:27:33;22.80;99.90
25170;DHT22;13129;48.012;10.352;2023-05-23T12:30:20;23.20;99.90
25170;DHT22;13129;48.012;10.352;2023-05-23T12:32:45;23.20;99.90
25170;DHT22;13129;48.012;10.352;2023-05-23T12:35:13;22.70;99.90
25170;DHT22;13129;48.012;10.352;2023-05-23T12:37:46;22.00;99.90
25170;DHT22;13129;48.012;10.352;2023-05-23T12:40:16;21.30;99.90
25170;DHT22;13129;48.012;10.352;2023-05-23T12:42:52;20.90;99.90
25170;DHT22;13129;48.012;10.352;2023-05-23T12:45:20;20.90;99.90
25170;DHT22;13129;48.012;10.352;2023-05-23T12:47:46;20.70;99.90
25170;DHT22;13129;48.012;10.352;2023-05-23T12:50:12;20.50;99.90
25170;DHT22;13129;48.012;10.352;2023-05-23T12:52:38;20.70;99.90
25170;DHT22;13129;48.012;10.352;2023-05-23T12:55:05;21.00;99.90
25170;DHT22;13129;48.012;10.352;2023-05-23T12:57:32;20.90;99.90
25170;DHT22;13129;48.012;10.352;2023-05-23T12:59:58;21.00;99.90
25170;DHT22;13129;48.012;10.352;2023-05-23T13:02:24;21.30;99.90
25170;DHT22;13129;48.012;10.352;2023-05-23T13:04:49;21.60;99.90
25170;DHT22;13129;48.012;10.352;2023-05-23T13:07:15;21.80;99.90
25170;DHT22;13129;48.012;10.352;2023-05-23T13:09:50;21.80;99.90
25170;DHT22;13129;48.012;10.352;2023-05-23T13:12:16;21.80;99.90
25170;DHT22;13129;48.012;10.352;2023-05-23T13:14:42;21.60;99.90
25170;DHT22;13129;48.012;10.352;2023-05-23T13:17:07;21.40;99.90
25170;DHT22;13129;48.012;10.352;2023-05-23T13:19:33;21.20;99.90
25170;DHT22;13129;48.012;10.352;2023-05-23T13:21:59;20.90;99.90
25170;DHT22;13129;48.012;10.352;2023-05-23T13:24:25;20.70;99.90
25170;DHT22;13129;48.012;10.352;2023-05-23T13:26:51;20.80;99.90
25170;DHT22;13129;48.012;10.352;2023-05-23T13:29:17;21.00;99.90
25170;DHT22;13129;48.012;10.352;2023-05-23T13:31:43;21.30;99.90
25170;DHT22;13129;48.012;10.352;2023-05-23T13:34:09;21.30;99.90
25170;DHT22;13129;48.012;10.352;2023-05-23T13:36:34;21.20;99.90
25170;DHT22;13129;48.012;10.352;2023-05-23T13:39:00;21.30;99.90
25170;DHT22;13129;48.012;10.352;2023-05-23T13:41:26;21.50;99.90
25170;DHT22;13129;48.012;10.352;2023-05-23T13:43:52;21.50;99.90
25170;DHT22;13129;48.012;10.352;2023-05-23T13:46:18;21.40;99.90
25170;DHT22;13129;48.012;10.352;2023-05-23T13:48:43;21.10;99.90
25170;DHT22;13129;48.012;10.352;2023-05-23T13:51:09;20.90;99.90
25170;DHT22;13129;48.012;10.352;2023-05-23T13:53:35;20.90;99.90
25170;DHT22;13129;48.012;10.352;2023-05-23T13:56:00;20.90;99.90
25170;DHT22;13129;48.012;10.352;2023-05-23T13:58:27;20.90;99.90
25170;DHT22;13129;48.012;10.352;2023-05-23T14:00:53;20.90;99.90
25170;DHT22;13129;48.012;10.352;2023-05-23T14:03:19;20.70;99.90
25170;DHT22;13129;48.012;10.352;2023-05-23T14:05:45;20.60;99.90
25170;DHT22;13129;48.012;10.352;2023-05-23T14:08:11;20.60;99.90
25170;DHT22;13129;48.012;10.352;2023-05-23T14:10:38;20.60;99.90
25170;DHT22;13129;48.012;10.352;2023-05-23T14:13:05;20.50;99.90
25170;DHT22;13129;48.012;10.352;2023-05-23T14:15:32;20.40;99.90
25170;DHT22;13129;48.012;10.352;2023-05-23T14:17:58;20.30;99.90
25170;DHT22;13129;48.012;10.352;2023-05-23T14:20:23;20.20;99.90
25170;DHT22;13129;48.012;10.352;2023-05-23T14:22:50;20.40;99.90
25170;DHT22;13129;48.012;10.352;2023-05-23T14:25:16;20.80;99.90
25170;DHT22;13129;48.012;10.352;2023-05-23T14:27:42;21.00;99.90
25170;DHT22;13129;48.012;10.352;2023-05-23T14:30:08;21.30;99.90
25170;DHT22;13129;48.012;10.352;2023-05-23T14:32:34;21.30;99.90
25170;DHT22;13129;48.012;10.352;2023-05-23T14:35:08;21.20;99.90
25170;DHT22;13129;48.012;10.352;2023-05-23T14:37:34;21.20;99.90
25170;DHT22;13129;48.012;10.352;2023-05-23T14:40:00;21.30;99.90
25170;DHT22;13129;48.012;10.352;2023-05-23T14:42:25;21.20;99.90
25170;DHT22;13129;48.012;10.352;2023-05-23T14:44:52;20.80;99.90
25170;DHT22;13129;48.012;10.352;2023-05-23T14:47:19;20.50;99.90
25170;DHT22;13129;48.012;10.352;2023-05-23T14:49:44;20.40;99.90
25170;DHT22;13129;48.012;10.352;2023-05-23T14:52:10;20.40;99.90
25170;DHT22;13129;48.012;10.352;2023-05-23T14:54:37;20.60;99.90
25170;DHT22;13129;48.012;10.352;2023-05-23T14:57:05;20.60;99.90
25170;DHT22;13129;48.012;10.352;2023-05-23T14:59:31;20.70;99.90
25170;DHT22;13129;48.012;10.352;2023-05-23T15:01:57;20.80;99.90
25170;DHT22;13129;48.012;10.352;2023-05-23T15:04:23;20.90;99.90
25170;DHT22;13129;48.012;10.352;2023-05-23T15:06:48;20.90;99.90
25170;DHT22;13129;48.012;10.352;2023-05-23T15:09:16;20.80;99.90
25170;DHT22;13129;48.012;10.352;2023-05-23T15:11:43;20.70;99.90
25170;DHT22;13129;48.012;10.352;2023-05-23T15:14:10;20.60;99.90
25170;DHT22;13129;48.012;10.352;2023-05-23T15:16:35;20.40;99.90
25170;DHT22;13129;48.012;10.352;2023-05-23T15:19:02;20.10;99.90
25170;DHT22;13129;48.012;10.352;2023-05-23T15:21:28;20.00;99.90
25170;DHT22;13129;48.012;10.352;2023-05-23T15:23:53;19.90;99.90
25170;DHT22;13129;48.012;10.352;2023-05-23T15:26:19;19.80;99.90
25170;DHT22;13129;48.012;10.352;2023-05-23T15:28:45;19.90;99.90
25170;DHT22;13129;48.012;10.352;2023-05-23T15:31:11;19.90;99.90
25170;DHT22;13129;48.012;10.352;2023-05-23T15:33:36;19.80;99.90
25170;DHT22;13129;48.012;10.352;2023-05-23T15:36:02;19.70;99.90
25170;DHT22;13129;48.012;10.352;2023-05-23T15:38:27;19.60;99.90
25170;DHT22;13129;48.012;10.352;2023-05-23T15:40:53;19.60;99.90
25170;DHT22;13129;48.012;10.352;2023-05-23T15:43:21;19.70;99.90
25170;DHT22;13129;48.012;10.352;2023-05-23T15:45:48;19.90;99.90
25170;DHT22;13129;48.012;10.352;2023-05-23T15:48:14;20.10;99.90
25170;DHT22;13129;48.012;10.352;2023-05-23T15:50:39;20.20;99.90
25170;DHT22;13129;48.012;10.352;2023-05-23T15:53:05;20.10;99.90
25170;DHT22;13129;48.012;10.352;2023-05-23T15:55:31;20.00;99.90
25170;DHT22;13129;48.012;10.352;2023-05-23T15:57:56;19.80;99.90
25170;DHT22;13129;48.012;10.352;2023-05-23T16:00:22;19.70;99.90
25170;DHT22;13129;48.012;10.352;2023-05-23T16:02:47;19.70;99.90
25170;DHT22;13129;48.012;10.352;2023-05-23T16:05:13;19.60;99.90
25170;DHT22;13129;48.012;10.352;2023-05-23T16:07:39;19.70;99.90
25170;DHT22;13129;48.012;10.352;2023-05-23T16:10:05;19.50;99.90
25170;DHT22;13129;48.012;10.352;2023-05-23T16:12:31;19.40;99.90
25170;DHT22;13129;48.012;10.352;2023-05-23T16:14:56;19.30;99.90
25170;DHT22;13129;48.012;10.352;2023-05-23T16:17:22;19.30;99.90
25170;DHT22;13129;48.012;10.352;2023-05-23T16:19:47;19.20;99.90
25170;DHT22;13129;48.012;10.352;2023-05-23T16:22:13;19.10;99.90
25170;DHT22;13129;48.012;10.352;2023-05-23T16:24:39;19.10;99.90
25170;DHT22;13129;48.012;10.352;2023-05-23T16:27:04;18.90;99.90
25170;DHT22;13129;48.012;10.352;2023-05-23T16:29:30;18.80;99.90
25170;DHT22;13129;48.012;10.352;2023-05-23T16:31:56;18.80;99.90
25170;DHT22;13129;48.012;10.352;2023-05-23T16:34:21;18.70;99.90
25170;DHT22;13129;48.012;10.352;2023-05-23T16:36:47;18.60;99.90
25170;DHT22;13129;48.012;10.352;2023-05-23T16:39:13;18.60;99.90
25170;DHT22;13129;48.012;10.352;2023-05-23T16:41:38;18.50;99.90
25170;DHT22;13129;48.012;10.352;2023-05-23T16:44:04;18.50;99.90
25170;DHT22;13129;48.012;10.352;2023-05-23T16:46:29;18.40;99.90
25170;DHT22;13129;48.012;10.352;2023-05-23T16:48:55;18.20;99.90
25170;DHT22;13129;48.012;10.352;2023-05-23T16:51:21;18.10;99.90
25170;DHT22;13129;48.012;10.352;2023-05-23T16:53:46;17.90;99.90
25170;DHT22;13129;48.012;10.352;2023-05-23T16:56:12;17.80;99.90
25170;DHT22;13129;48.012;10.352;2023-05-23T16:58:37;17.70;99.90
25170;DHT22;13129;48.012;10.352;2023-05-23T17:01:04;17.70;99.90
25170;DHT22;13129;48.012;10.352;2023-05-23T17:03:30;17.70;99.90
25170;DHT22;13129;48.012;10.352;2023-05-23T17:05:56;17.70;99.90
25170;DHT22;13129;48.012;10.352;2023-05-23T17:08:21;17.70;99.90
25170;DHT22;13129;48.012;10.352;2023-05-23T17:10:47;17.60;99.90
25170;DHT22;13129;48.012;10.352;2023-05-23T17:13:12;17.60;99.90
25170;DHT22;13129;48.012;10.352;2023-05-23T17:15:38;17.50;99.90
25170;DHT22;13129;48.012;10.352;2023-05-23T17:18:04;17.40;99.90
25170;DHT22;13129;48.012;10.352;2023-05-23T17:20:29;17.40;99.90
25170;DHT22;13129;48.012;10.352;2023-05-23T17:22:55;17.30;99.90
25170;DHT22;13129;48.012;10.352;2023-05-23T17:25:21;17.30;99.90
25170;DHT22;13129;48.012;10.352;2023-05-23T17:27:46;17.20;99.90
25170;DHT22;13129;48.012;10.352;2023-05-23T17:30:12;17.30;99.90
25170;DHT22;13129;48.012;10.352;2023-05-23T17:32:44;17.20;99.90
25170;DHT22;13129;48.012;10.352;2023-05-23T17:35:10;17.20;99.90
25170;DHT22;13129;48.012;10.352;2023-05-23T17:37:36;17.20;99.90
25170;DHT22;13129;48.012;10.352;2023-05-23T17:40:03;17.10;99.90
25170;DHT22;13129;48.012;10.352;2023-05-23T17:42:30;17.10;99.90
25170;DHT22;13129;48.012;10.352;2023-05-23T17:44:56;17.00;99.90
25170;DHT22;13129;48.012;10.352;2023-05-23T17:47:22;16.90;99.90
25170;DHT22;13129;48.012;10.352;2023-05-23T17:49:47;16.90;99.90
25170;DHT22;13129;48.012;10.352;2023-05-23T17:52:13;16.80;99.90
25170;DHT22;13129;48.012;10.352;2023-05-23T17:54:40;16.80;99.90
25170;DHT22;13129;48.012;10.352;2023-05-23T17:57:05;16.70;99.90
25170;DHT22;13129;48.012;10.352;2023-05-23T17:59:32;16.60;99.90
25170;DHT22;13129;48.012;10.352;2023-05-23T18:01:59;16.50;99.90
25170;DHT22;13129;48.012;10.352;2023-05-23T18:04:24;16.40;99.90
25170;DHT22;13129;48.012;10.352;2023-05-23T18:06:53;16.40;99.90
25170;DHT22;13129;48.012;10.352;2023-05-23T18:09:18;16.40;99.90
25170;DHT22;13129;48.012;10.352;2023-05-23T18:11:44;16.30;99.90
25170;DHT22;13129;48.012;10.352;2023-05-23T18:14:10;16.30;99.90
25170;DHT22;13129;48.012;10.352;2023-05-23T18:16:36;16.20;99.90
25170;DHT22;13129;48.012;10.352;2023-05-23T18:19:01;16.20;99.90
25170;DHT22;13129;48.012;10.352;2023-05-23T18:21:27;16.10;99.90
25170;DHT22;13129;48.012;10.352;2023-05-23T18:23:53;16.10;99.90
25170;DHT22;13129;48.012;10.352;2023-05-23T18:26:18;16.00;99.90
25170;DHT22;13129;48.012;10.352;2023-05-23T18:28:44;16.00;99.90
25170;DHT22;13129;48.012;10.352;2023-05-23T18:31:10;16.00;99.90
25170;DHT22;13129;48.012;10.352;2023-05-23T18:33:35;15.90;99.90
25170;DHT22;13129;48.012;10.352;2023-05-23T18:36:01;15.80;99.90
25170;DHT22;13129;48.012;10.352;2023-05-23T18:38:27;15.80;99.90
25170;DHT22;13129;48.012;10.352;2023-05-23T18:40:53;15.80;99.90
25170;DHT22;13129;48.012;10.352;2023-05-23T18:43:18;15.70;99.90
25170;DHT22;13129;48.012;10.352;2023-05-23T18:45:44;15.70;99.90
25170;DHT22;13129;48.012;10.352;2023-05-23T18:48:09;15.70;99.90
25170;DHT22;13129;48.012;10.352;2023-05-23T18:50:35;15.60;99.90
25170;DHT22;13129;48.012;10.352;2023-05-23T18:53:02;15.50;99.90
25170;DHT22;13129;48.012;10.352;2023-05-23T18:55:28;15.50;99.90
25170;DHT22;13129;48.012;10.352;2023-05-23T18:57:54;15.40;99.90